Ana Sayfa
METAR-TAF:

METAR-TAF

Havaalanları :

Collin County Regional Airport at McKinney

McKinney, Teksas, Amerika Birleşik Devletleri

Enlem: 33-10-40N, Boylam: 096-35-25W, yükseklik: 178 m

Güncel hava durumu gözlemi

Rapor saat 13:53 UTC de 32 dakika önce yapıldı.
Rüzgar güneydan 11 kt
Sıcaklık 30°C
Nem 75%
Basınç 1014 hPa
Görüş mesafesi: 16.1 km
2000 ft yükseklikte az bulutlu

METAR: KTKI 251353Z 18011KT 10SM FEW020 30/25 A2994 RMK AO2 SLP131 T03000250

Saat: 09:25 (14:25 UTC)


TAF: eksik

4.000'den fazla havaalanı için hava durumu gözlemleri ve tahminleri (METAR ve TAF raporları).

Kullanılabilir istasyonlar harita üzerinde sarı ve kırmızı noktalarla gösterilir.

İstasyonun adını görmek için fareyi noktanın üzerinde gezdirin.

Sonrasında hava gözlem ve tahminlerini görmek için tıklayın.

Haritayı değiştirmek için: yaklaştırmak için siyah artı işaretli yeşil düğmeye ve uzaklaştırmak için de eksi işaretli düğmeye hızla tıklayın; bitişik haritalar için yeşil okları kullanın.


METAR-TAF: